sensor_id;sensor_type;location;lat;lon;timestamp;P1;durP1;ratioP1;P2;durP2;ratioP2
82513;SDS011;72858;52.130;5.584;2024-01-30T00:00:25;27.10;;;16.77;;
82513;SDS011;72858;52.130;5.584;2024-01-30T00:02:50;23.95;;;17.30;;
82513;SDS011;72858;52.130;5.584;2024-01-30T00:05:16;25.17;;;17.40;;
82513;SDS011;72858;52.130;5.584;2024-01-30T00:07:42;21.15;;;17.67;;
82513;SDS011;72858;52.130;5.584;2024-01-30T00:10:07;24.45;;;18.20;;
82513;SDS011;72858;52.130;5.584;2024-01-30T00:12:32;23.35;;;17.35;;
82513;SDS011;72858;52.130;5.584;2024-01-30T00:14:57;19.30;;;15.93;;
82513;SDS011;72858;52.130;5.584;2024-01-30T00:17:23;23.27;;;17.57;;
82513;SDS011;72858;52.130;5.584;2024-01-30T00:19:50;20.75;;;16.42;;
82513;SDS011;72858;52.130;5.584;2024-01-30T00:22:15;22.25;;;17.20;;
82513;SDS011;72858;52.130;5.584;2024-01-30T00:24:40;22.87;;;17.87;;
82513;SDS011;72858;52.130;5.584;2024-01-30T00:27:05;23.17;;;17.17;;
82513;SDS011;72858;52.130;5.584;2024-01-30T00:29:31;21.52;;;16.58;;
82513;SDS011;72858;52.130;5.584;2024-01-30T00:31:58;19.42;;;15.57;;
82513;SDS011;72858;52.130;5.584;2024-01-30T00:34:23;19.17;;;16.73;;
82513;SDS011;72858;52.130;5.584;2024-01-30T00:36:49;22.83;;;17.05;;
82513;SDS011;72858;52.130;5.584;2024-01-30T00:39:14;21.20;;;16.00;;
82513;SDS011;72858;52.130;5.584;2024-01-30T00:41:40;24.95;;;17.38;;
82513;SDS011;72858;52.130;5.584;2024-01-30T00:44:06;23.10;;;17.58;;
82513;SDS011;72858;52.130;5.584;2024-01-30T00:46:31;24.40;;;18.15;;
82513;SDS011;72858;52.130;5.584;2024-01-30T00:48:56;22.67;;;18.10;;
82513;SDS011;72858;52.130;5.584;2024-01-30T00:51:21;22.73;;;17.73;;
82513;SDS011;72858;52.130;5.584;2024-01-30T00:53:47;24.03;;;17.77;;
82513;SDS011;72858;52.130;5.584;2024-01-30T00:56:12;21.67;;;17.20;;
82513;SDS011;72858;52.130;5.584;2024-01-30T00:58:37;20.83;;;17.77;;
82513;SDS011;72858;52.130;5.584;2024-01-30T01:01:02;20.50;;;16.20;;
82513;SDS011;72858;52.130;5.584;2024-01-30T01:03:28;19.77;;;16.70;;
82513;SDS011;72858;52.130;5.584;2024-01-30T01:05:53;19.52;;;17.10;;
82513;SDS011;72858;52.130;5.584;2024-01-30T01:08:18;27.67;;;17.67;;
82513;SDS011;72858;52.130;5.584;2024-01-30T01:10:43;22.42;;;16.90;;
82513;SDS011;72858;52.130;5.584;2024-01-30T01:13:08;21.70;;;16.53;;
82513;SDS011;72858;52.130;5.584;2024-01-30T01:15:34;22.80;;;16.88;;
82513;SDS011;72858;52.130;5.584;2024-01-30T01:17:59;21.38;;;17.63;;
82513;SDS011;72858;52.130;5.584;2024-01-30T01:20:25;21.40;;;16.77;;
82513;SDS011;72858;52.130;5.584;2024-01-30T01:22:50;21.92;;;17.33;;
82513;SDS011;72858;52.130;5.584;2024-01-30T01:25:15;20.77;;;16.40;;
82513;SDS011;72858;52.130;5.584;2024-01-30T01:27:40;23.88;;;17.98;;
82513;SDS011;72858;52.130;5.584;2024-01-30T01:30:10;21.92;;;18.08;;
82513;SDS011;72858;52.130;5.584;2024-01-30T01:32:35;23.70;;;18.27;;
82513;SDS011;72858;52.130;5.584;2024-01-30T01:35:01;22.83;;;16.92;;
82513;SDS011;72858;52.130;5.584;2024-01-30T01:37:27;22.70;;;16.80;;
82513;SDS011;72858;52.130;5.584;2024-01-30T01:39:52;20.85;;;17.27;;
82513;SDS011;72858;52.130;5.584;2024-01-30T01:42:17;20.67;;;17.03;;
82513;SDS011;72858;52.130;5.584;2024-01-30T01:44:43;20.27;;;15.75;;
82513;SDS011;72858;52.130;5.584;2024-01-30T01:47:08;22.40;;;15.57;;
82513;SDS011;72858;52.130;5.584;2024-01-30T01:49:33;20.80;;;15.73;;
82513;SDS011;72858;52.130;5.584;2024-01-30T01:51:58;20.98;;;15.18;;
82513;SDS011;72858;52.130;5.584;2024-01-30T01:54:24;19.20;;;15.82;;
82513;SDS011;72858;52.130;5.584;2024-01-30T01:56:50;19.85;;;16.25;;
82513;SDS011;72858;52.130;5.584;2024-01-30T01:59:16;17.98;;;15.07;;
82513;SDS011;72858;52.130;5.584;2024-01-30T02:01:42;20.45;;;16.10;;
82513;SDS011;72858;52.130;5.584;2024-01-30T02:04:08;16.95;;;14.55;;
82513;SDS011;72858;52.130;5.584;2024-01-30T02:06:33;18.55;;;15.45;;
82513;SDS011;72858;52.130;5.584;2024-01-30T02:08:59;17.55;;;15.50;;
82513;SDS011;72858;52.130;5.584;2024-01-30T02:11:24;16.65;;;14.60;;
82513;SDS011;72858;52.130;5.584;2024-01-30T02:13:49;18.60;;;15.18;;
82513;SDS011;72858;52.130;5.584;2024-01-30T02:16:15;16.50;;;14.77;;
82513;SDS011;72858;52.130;5.584;2024-01-30T02:18:40;18.33;;;15.40;;
82513;SDS011;72858;52.130;5.584;2024-01-30T02:21:12;17.23;;;15.43;;
82513;SDS011;72858;52.130;5.584;2024-01-30T02:23:37;18.20;;;14.65;;
82513;SDS011;72858;52.130;5.584;2024-01-30T02:26:03;19.20;;;14.60;;
82513;SDS011;72858;52.130;5.584;2024-01-30T02:28:28;19.48;;;14.45;;
82513;SDS011;72858;52.130;5.584;2024-01-30T02:30:53;21.67;;;14.27;;
82513;SDS011;72858;52.130;5.584;2024-01-30T02:33:18;22.27;;;15.50;;
82513;SDS011;72858;52.130;5.584;2024-01-30T02:35:44;18.98;;;14.23;;
82513;SDS011;72858;52.130;5.584;2024-01-30T02:38:09;19.67;;;15.40;;
82513;SDS011;72858;52.130;5.584;2024-01-30T02:40:34;16.55;;;14.18;;
82513;SDS011;72858;52.130;5.584;2024-01-30T02:43:00;17.00;;;13.67;;
82513;SDS011;72858;52.130;5.584;2024-01-30T02:45:25;19.30;;;14.23;;
82513;SDS011;72858;52.130;5.584;2024-01-30T02:47:50;17.90;;;15.05;;
82513;SDS011;72858;52.130;5.584;2024-01-30T02:50:15;17.13;;;14.00;;
82513;SDS011;72858;52.130;5.584;2024-01-30T02:52:41;18.13;;;15.15;;
82513;SDS011;72858;52.130;5.584;2024-01-30T02:55:08;17.85;;;14.18;;
82513;SDS011;72858;52.130;5.584;2024-01-30T02:57:34;18.50;;;14.82;;
82513;SDS011;72858;52.130;5.584;2024-01-30T02:59:59;19.70;;;14.80;;
82513;SDS011;72858;52.130;5.584;2024-01-30T03:02:24;20.27;;;14.53;;
82513;SDS011;72858;52.130;5.584;2024-01-30T03:04:49;19.10;;;14.75;;
82513;SDS011;72858;52.130;5.584;2024-01-30T03:07:15;17.92;;;13.38;;
82513;SDS011;72858;52.130;5.584;2024-01-30T03:09:41;18.90;;;15.30;;
82513;SDS011;72858;52.130;5.584;2024-01-30T03:12:06;15.93;;;13.88;;
82513;SDS011;72858;52.130;5.584;2024-01-30T03:14:31;18.90;;;13.80;;
82513;SDS011;72858;52.130;5.584;2024-01-30T03:16:57;20.93;;;14.63;;
82513;SDS011;72858;52.130;5.584;2024-01-30T03:19:22;15.05;;;13.55;;
82513;SDS011;72858;52.130;5.584;2024-01-30T03:21:47;15.83;;;14.10;;
82513;SDS011;72858;52.130;5.584;2024-01-30T03:24:12;18.13;;;14.37;;
82513;SDS011;72858;52.130;5.584;2024-01-30T03:26:37;17.57;;;14.20;;
82513;SDS011;72858;52.130;5.584;2024-01-30T03:29:03;19.87;;;15.17;;
82513;SDS011;72858;52.130;5.584;2024-01-30T03:31:28;19.10;;;14.60;;
82513;SDS011;72858;52.130;5.584;2024-01-30T03:33:53;15.93;;;13.73;;
82513;SDS011;72858;52.130;5.584;2024-01-30T03:36:18;22.40;;;14.83;;
82513;SDS011;72858;52.130;5.584;2024-01-30T03:38:43;17.65;;;14.63;;
82513;SDS011;72858;52.130;5.584;2024-01-30T03:41:09;16.55;;;14.50;;
82513;SDS011;72858;52.130;5.584;2024-01-30T03:43:35;19.13;;;14.27;;
82513;SDS011;72858;52.130;5.584;2024-01-30T03:46:00;18.33;;;14.75;;
82513;SDS011;72858;52.130;5.584;2024-01-30T03:48:26;15.52;;;13.85;;
82513;SDS011;72858;52.130;5.584;2024-01-30T03:50:51;16.00;;;13.87;;
82513;SDS011;72858;52.130;5.584;2024-01-30T03:53:17;18.33;;;14.73;;
82513;SDS011;72858;52.130;5.584;2024-01-30T03:55:42;17.10;;;14.00;;
82513;SDS011;72858;52.130;5.584;2024-01-30T03:58:07;18.67;;;14.37;;
82513;SDS011;72858;52.130;5.584;2024-01-30T04:00:32;19.70;;;13.53;;
82513;SDS011;72858;52.130;5.584;2024-01-30T04:02:57;19.40;;;13.20;;
82513;SDS011;72858;52.130;5.584;2024-01-30T04:05:23;19.73;;;14.50;;
82513;SDS011;72858;52.130;5.584;2024-01-30T04:07:48;17.03;;;14.03;;
82513;SDS011;72858;52.130;5.584;2024-01-30T04:10:13;17.47;;;14.37;;
82513;SDS011;72858;52.130;5.584;2024-01-30T04:12:38;17.57;;;14.73;;
82513;SDS011;72858;52.130;5.584;2024-01-30T04:15:03;16.60;;;13.60;;
82513;SDS011;72858;52.130;5.584;2024-01-30T04:17:29;19.70;;;15.25;;
82513;SDS011;72858;52.130;5.584;2024-01-30T04:19:54;18.27;;;14.17;;
82513;SDS011;72858;52.130;5.584;2024-01-30T04:22:19;15.65;;;13.60;;
82513;SDS011;72858;52.130;5.584;2024-01-30T04:24:45;17.90;;;13.93;;
82513;SDS011;72858;52.130;5.584;2024-01-30T04:27:10;19.50;;;14.20;;
82513;SDS011;72858;52.130;5.584;2024-01-30T04:29:35;17.60;;;12.97;;
82513;SDS011;72858;52.130;5.584;2024-01-30T04:32:00;20.63;;;14.37;;
82513;SDS011;72858;52.130;5.584;2024-01-30T04:34:25;17.03;;;12.90;;
82513;SDS011;72858;52.130;5.584;2024-01-30T04:36:50;15.97;;;13.30;;
82513;SDS011;72858;52.130;5.584;2024-01-30T04:39:16;18.08;;;13.82;;
82513;SDS011;72858;52.130;5.584;2024-01-30T04:41:41;19.45;;;13.82;;
82513;SDS011;72858;52.130;5.584;2024-01-30T04:44:06;15.73;;;13.57;;
82513;SDS011;72858;52.130;5.584;2024-01-30T04:46:31;15.37;;;12.80;;
82513;SDS011;72858;52.130;5.584;2024-01-30T04:48:59;14.93;;;13.32;;
82513;SDS011;72858;52.130;5.584;2024-01-30T04:51:24;14.73;;;13.15;;
82513;SDS011;72858;52.130;5.584;2024-01-30T04:53:49;21.08;;;13.90;;
82513;SDS011;72858;52.130;5.584;2024-01-30T04:56:14;17.37;;;14.00;;
82513;SDS011;72858;52.130;5.584;2024-01-30T04:58:39;15.83;;;13.77;;
82513;SDS011;72858;52.130;5.584;2024-01-30T05:01:05;16.20;;;13.40;;
82513;SDS011;72858;52.130;5.584;2024-01-30T05:03:32;16.90;;;13.90;;
82513;SDS011;72858;52.130;5.584;2024-01-30T05:05:57;15.85;;;13.57;;
82513;SDS011;72858;52.130;5.584;2024-01-30T05:08:23;16.10;;;13.30;;
82513;SDS011;72858;52.130;5.584;2024-01-30T05:10:48;18.20;;;13.13;;
82513;SDS011;72858;52.130;5.584;2024-01-30T05:13:13;18.70;;;14.07;;
82513;SDS011;72858;52.130;5.584;2024-01-30T05:15:38;19.30;;;14.02;;
82513;SDS011;72858;52.130;5.584;2024-01-30T05:18:04;14.57;;;13.07;;
82513;SDS011;72858;52.130;5.584;2024-01-30T05:20:29;15.27;;;13.38;;
82513;SDS011;72858;52.130;5.584;2024-01-30T05:22:54;17.05;;;13.55;;
82513;SDS011;72858;52.130;5.584;2024-01-30T05:25:20;17.70;;;13.50;;
82513;SDS011;72858;52.130;5.584;2024-01-30T05:27:45;15.00;;;13.20;;
82513;SDS011;72858;52.130;5.584;2024-01-30T05:30:10;18.10;;;13.63;;
82513;SDS011;72858;52.130;5.584;2024-01-30T05:32:35;18.70;;;13.50;;
82513;SDS011;72858;52.130;5.584;2024-01-30T05:35:00;18.85;;;13.27;;
82513;SDS011;72858;52.130;5.584;2024-01-30T05:37:26;14.52;;;12.95;;
82513;SDS011;72858;52.130;5.584;2024-01-30T05:39:51;13.97;;;12.27;;
82513;SDS011;72858;52.130;5.584;2024-01-30T05:42:16;16.27;;;13.60;;
82513;SDS011;72858;52.130;5.584;2024-01-30T05:44:42;21.02;;;13.30;;
82513;SDS011;72858;52.130;5.584;2024-01-30T05:47:07;19.40;;;13.43;;
82513;SDS011;72858;52.130;5.584;2024-01-30T05:49:32;19.57;;;13.93;;
82513;SDS011;72858;52.130;5.584;2024-01-30T05:51:57;23.48;;;13.25;;
82513;SDS011;72858;52.130;5.584;2024-01-30T05:54:22;15.48;;;13.20;;
82513;SDS011;72858;52.130;5.584;2024-01-30T05:56:48;16.25;;;13.27;;
82513;SDS011;72858;52.130;5.584;2024-01-30T05:59:13;15.88;;;13.30;;
82513;SDS011;72858;52.130;5.584;2024-01-30T06:01:44;17.73;;;13.65;;
82513;SDS011;72858;52.130;5.584;2024-01-30T06:04:10;17.17;;;13.52;;
82513;SDS011;72858;52.130;5.584;2024-01-30T06:06:35;16.63;;;12.50;;
82513;SDS011;72858;52.130;5.584;2024-01-30T06:09:00;18.30;;;13.43;;
82513;SDS011;72858;52.130;5.584;2024-01-30T06:11:25;18.15;;;13.63;;
82513;SDS011;72858;52.130;5.584;2024-01-30T06:13:50;16.87;;;13.23;;
82513;SDS011;72858;52.130;5.584;2024-01-30T06:16:16;18.33;;;13.73;;
82513;SDS011;72858;52.130;5.584;2024-01-30T06:18:41;18.88;;;15.05;;
82513;SDS011;72858;52.130;5.584;2024-01-30T06:21:06;18.77;;;13.43;;
82513;SDS011;72858;52.130;5.584;2024-01-30T06:23:31;17.60;;;13.05;;
82513;SDS011;72858;52.130;5.584;2024-01-30T06:25:57;15.97;;;13.47;;
82513;SDS011;72858;52.130;5.584;2024-01-30T06:28:22;13.73;;;12.27;;
82513;SDS011;72858;52.130;5.584;2024-01-30T06:30:47;19.57;;;13.37;;
82513;SDS011;72858;52.130;5.584;2024-01-30T06:33:12;16.27;;;12.97;;
82513;SDS011;72858;52.130;5.584;2024-01-30T06:35:38;16.35;;;13.23;;
82513;SDS011;72858;52.130;5.584;2024-01-30T06:38:05;16.08;;;13.60;;
82513;SDS011;72858;52.130;5.584;2024-01-30T06:40:30;17.00;;;13.23;;
82513;SDS011;72858;52.130;5.584;2024-01-30T06:42:55;15.37;;;12.63;;
82513;SDS011;72858;52.130;5.584;2024-01-30T06:45:20;17.47;;;12.63;;
82513;SDS011;72858;52.130;5.584;2024-01-30T06:47:46;16.23;;;12.30;;
82513;SDS011;72858;52.130;5.584;2024-01-30T06:50:11;16.88;;;13.38;;
82513;SDS011;72858;52.130;5.584;2024-01-30T06:52:36;14.85;;;12.90;;
82513;SDS011;72858;52.130;5.584;2024-01-30T06:55:01;17.38;;;12.70;;
82513;SDS011;72858;52.130;5.584;2024-01-30T06:57:27;19.00;;;13.68;;
82513;SDS011;72858;52.130;5.584;2024-01-30T06:59:53;14.55;;;12.05;;
82513;SDS011;72858;52.130;5.584;2024-01-30T07:02:18;17.60;;;12.55;;
82513;SDS011;72858;52.130;5.584;2024-01-30T07:04:43;17.40;;;12.63;;
82513;SDS011;72858;52.130;5.584;2024-01-30T07:07:08;16.30;;;12.93;;
82513;SDS011;72858;52.130;5.584;2024-01-30T07:09:37;15.02;;;12.20;;
82513;SDS011;72858;52.130;5.584;2024-01-30T07:12:02;17.05;;;12.68;;
82513;SDS011;72858;52.130;5.584;2024-01-30T07:14:28;14.13;;;12.45;;
82513;SDS011;72858;52.130;5.584;2024-01-30T07:16:53;19.20;;;12.47;;
82513;SDS011;72858;52.130;5.584;2024-01-30T07:19:18;15.70;;;12.40;;
82513;SDS011;72858;52.130;5.584;2024-01-30T07:21:44;14.93;;;11.52;;
82513;SDS011;72858;52.130;5.584;2024-01-30T07:24:09;15.70;;;12.60;;
82513;SDS011;72858;52.130;5.584;2024-01-30T07:26:34;16.00;;;12.27;;
82513;SDS011;72858;52.130;5.584;2024-01-30T07:29:00;17.88;;;12.15;;
82513;SDS011;72858;52.130;5.584;2024-01-30T07:31:25;18.10;;;12.77;;
82513;SDS011;72858;52.130;5.584;2024-01-30T07:33:51;19.40;;;11.83;;
82513;SDS011;72858;52.130;5.584;2024-01-30T07:36:16;16.17;;;12.00;;
82513;SDS011;72858;52.130;5.584;2024-01-30T07:38:41;15.33;;;11.30;;
82513;SDS011;72858;52.130;5.584;2024-01-30T07:41:06;17.30;;;12.00;;
82513;SDS011;72858;52.130;5.584;2024-01-30T07:43:35;15.80;;;12.30;;
82513;SDS011;72858;52.130;5.584;2024-01-30T07:46:00;14.85;;;12.00;;
82513;SDS011;72858;52.130;5.584;2024-01-30T07:48:27;16.92;;;11.70;;
82513;SDS011;72858;52.130;5.584;2024-01-30T07:50:53;16.80;;;10.98;;
82513;SDS011;72858;52.130;5.584;2024-01-30T07:53:18;19.95;;;12.38;;
82513;SDS011;72858;52.130;5.584;2024-01-30T07:55:43;18.10;;;13.35;;
82513;SDS011;72858;52.130;5.584;2024-01-30T07:58:11;19.77;;;13.90;;
82513;SDS011;72858;52.130;5.584;2024-01-30T08:00:36;17.55;;;13.05;;
82513;SDS011;72858;52.130;5.584;2024-01-30T08:03:02;15.10;;;12.15;;
82513;SDS011;72858;52.130;5.584;2024-01-30T08:05:27;18.67;;;13.25;;
82513;SDS011;72858;52.130;5.584;2024-01-30T08:07:53;17.30;;;12.52;;
82513;SDS011;72858;52.130;5.584;2024-01-30T08:10:18;19.73;;;13.15;;
82513;SDS011;72858;52.130;5.584;2024-01-30T08:12:44;14.05;;;12.07;;
82513;SDS011;72858;52.130;5.584;2024-01-30T08:15:09;15.18;;;12.02;;
82513;SDS011;72858;52.130;5.584;2024-01-30T08:17:34;26.63;;;12.88;;
82513;SDS011;72858;52.130;5.584;2024-01-30T08:20:00;17.97;;;11.50;;
82513;SDS011;72858;52.130;5.584;2024-01-30T08:22:25;23.98;;;13.10;;
82513;SDS011;72858;52.130;5.584;2024-01-30T08:24:50;17.95;;;12.90;;
82513;SDS011;72858;52.130;5.584;2024-01-30T08:27:15;16.87;;;12.67;;
82513;SDS011;72858;52.130;5.584;2024-01-30T08:29:40;16.67;;;13.10;;
82513;SDS011;72858;52.130;5.584;2024-01-30T08:32:06;16.30;;;12.03;;
82513;SDS011;72858;52.130;5.584;2024-01-30T08:34:31;19.42;;;11.50;;
82513;SDS011;72858;52.130;5.584;2024-01-30T08:36:57;14.45;;;11.88;;
82513;SDS011;72858;52.130;5.584;2024-01-30T08:39:22;16.58;;;12.23;;
82513;SDS011;72858;52.130;5.584;2024-01-30T08:41:47;15.27;;;11.60;;
82513;SDS011;72858;52.130;5.584;2024-01-30T08:44:12;20.40;;;13.15;;
82513;SDS011;72858;52.130;5.584;2024-01-30T08:46:38;16.42;;;12.30;;
82513;SDS011;72858;52.130;5.584;2024-01-30T08:49:03;17.92;;;11.43;;
82513;SDS011;72858;52.130;5.584;2024-01-30T08:51:31;20.98;;;12.13;;
82513;SDS011;72858;52.130;5.584;2024-01-30T08:53:56;15.70;;;11.47;;
82513;SDS011;72858;52.130;5.584;2024-01-30T08:56:21;17.83;;;12.00;;
82513;SDS011;72858;52.130;5.584;2024-01-30T08:58:47;17.37;;;11.70;;
82513;SDS011;72858;52.130;5.584;2024-01-30T09:01:12;20.00;;;12.23;;
82513;SDS011;72858;52.130;5.584;2024-01-30T09:03:37;19.42;;;12.35;;
82513;SDS011;72858;52.130;5.584;2024-01-30T09:06:08;26.98;;;14.63;;
82513;SDS011;72858;52.130;5.584;2024-01-30T09:08:33;21.60;;;14.82;;
82513;SDS011;72858;52.130;5.584;2024-01-30T09:10:58;23.70;;;16.10;;
82513;SDS011;72858;52.130;5.584;2024-01-30T09:13:24;26.30;;;17.53;;
82513;SDS011;72858;52.130;5.584;2024-01-30T09:15:49;24.02;;;13.48;;
82513;SDS011;72858;52.130;5.584;2024-01-30T09:18:14;17.77;;;12.85;;
82513;SDS011;72858;52.130;5.584;2024-01-30T09:20:39;15.73;;;12.73;;
82513;SDS011;72858;52.130;5.584;2024-01-30T09:23:04;17.33;;;12.53;;
82513;SDS011;72858;52.130;5.584;2024-01-30T09:25:30;17.00;;;12.60;;
82513;SDS011;72858;52.130;5.584;2024-01-30T09:27:55;15.47;;;12.30;;
82513;SDS011;72858;52.130;5.584;2024-01-30T09:30:20;18.40;;;12.70;;
82513;SDS011;72858;52.130;5.584;2024-01-30T09:32:45;17.47;;;12.57;;
82513;SDS011;72858;52.130;5.584;2024-01-30T09:35:10;21.02;;;12.98;;
82513;SDS011;72858;52.130;5.584;2024-01-30T09:37:35;20.23;;;12.90;;
82513;SDS011;72858;52.130;5.584;2024-01-30T09:40:01;20.03;;;14.07;;
82513;SDS011;72858;52.130;5.584;2024-01-30T09:42:28;19.80;;;12.68;;
82513;SDS011;72858;52.130;5.584;2024-01-30T09:44:53;18.88;;;13.40;;
82513;SDS011;72858;52.130;5.584;2024-01-30T09:47:19;21.57;;;12.60;;
82513;SDS011;72858;52.130;5.584;2024-01-30T09:49:44;25.02;;;13.45;;
82513;SDS011;72858;52.130;5.584;2024-01-30T09:52:09;18.42;;;13.65;;
82513;SDS011;72858;52.130;5.584;2024-01-30T09:54:35;17.13;;;13.52;;
82513;SDS011;72858;52.130;5.584;2024-01-30T09:57:00;18.67;;;13.05;;
82513;SDS011;72858;52.130;5.584;2024-01-30T09:59:26;20.38;;;13.18;;
82513;SDS011;72858;52.130;5.584;2024-01-30T10:01:51;21.77;;;13.10;;
82513;SDS011;72858;52.130;5.584;2024-01-30T10:04:16;20.02;;;12.73;;
82513;SDS011;72858;52.130;5.584;2024-01-30T10:06:42;17.20;;;13.00;;
82513;SDS011;72858;52.130;5.584;2024-01-30T10:09:07;20.42;;;12.85;;
82513;SDS011;72858;52.130;5.584;2024-01-30T10:11:33;22.10;;;13.18;;
82513;SDS011;72858;52.130;5.584;2024-01-30T10:13:59;21.15;;;12.75;;
82513;SDS011;72858;52.130;5.584;2024-01-30T10:16:25;17.73;;;12.63;;
82513;SDS011;72858;52.130;5.584;2024-01-30T10:18:50;17.47;;;11.93;;
82513;SDS011;72858;52.130;5.584;2024-01-30T10:21:15;14.37;;;11.50;;
82513;SDS011;72858;52.130;5.584;2024-01-30T10:23:41;26.92;;;12.05;;
82513;SDS011;72858;52.130;5.584;2024-01-30T10:26:08;15.95;;;10.95;;
82513;SDS011;72858;52.130;5.584;2024-01-30T10:28:33;16.60;;;11.30;;
82513;SDS011;72858;52.130;5.584;2024-01-30T10:30:59;15.85;;;10.48;;
82513;SDS011;72858;52.130;5.584;2024-01-30T10:33:24;17.52;;;11.77;;
82513;SDS011;72858;52.130;5.584;2024-01-30T10:35:50;15.15;;;10.93;;
82513;SDS011;72858;52.130;5.584;2024-01-30T10:38:15;14.05;;;10.13;;
82513;SDS011;72858;52.130;5.584;2024-01-30T10:40:42;15.43;;;11.60;;
82513;SDS011;72858;52.130;5.584;2024-01-30T10:43:08;21.63;;;11.45;;
82513;SDS011;72858;52.130;5.584;2024-01-30T10:45:35;18.33;;;11.35;;
82513;SDS011;72858;52.130;5.584;2024-01-30T10:48:03;14.65;;;10.63;;
82513;SDS011;72858;52.130;5.584;2024-01-30T10:50:30;18.85;;;10.50;;
82513;SDS011;72858;52.130;5.584;2024-01-30T10:52:55;16.27;;;10.88;;
82513;SDS011;72858;52.130;5.584;2024-01-30T10:55:21;13.35;;;10.40;;
82513;SDS011;72858;52.130;5.584;2024-01-30T10:57:46;15.48;;;10.70;;
82513;SDS011;72858;52.130;5.584;2024-01-30T11:00:13;18.03;;;11.27;;
82513;SDS011;72858;52.130;5.584;2024-01-30T11:02:41;17.63;;;11.13;;
82513;SDS011;72858;52.130;5.584;2024-01-30T11:05:07;14.07;;;10.10;;
82513;SDS011;72858;52.130;5.584;2024-01-30T11:07:33;13.50;;;10.23;;
82513;SDS011;72858;52.130;5.584;2024-01-30T11:12:27;15.23;;;10.88;;
82513;SDS011;72858;52.130;5.584;2024-01-30T11:15:04;13.38;;;10.98;;
82513;SDS011;72858;52.130;5.584;2024-01-30T11:17:43;17.83;;;11.32;;
82513;SDS011;72858;52.130;5.584;2024-01-30T11:20:15;16.67;;;11.25;;
82513;SDS011;72858;52.130;5.584;2024-01-30T11:22:41;19.23;;;11.93;;
82513;SDS011;72858;52.130;5.584;2024-01-30T11:25:06;14.88;;;10.60;;
82513;SDS011;72858;52.130;5.584;2024-01-30T11:27:35;13.02;;;9.68;;
82513;SDS011;72858;52.130;5.584;2024-01-30T11:30:01;14.35;;;9.75;;
82513;SDS011;72858;52.130;5.584;2024-01-30T11:32:27;18.67;;;10.00;;
82513;SDS011;72858;52.130;5.584;2024-01-30T11:34:52;14.13;;;9.00;;
82513;SDS011;72858;52.130;5.584;2024-01-30T11:37:18;17.17;;;9.40;;
82513;SDS011;72858;52.130;5.584;2024-01-30T11:39:45;14.77;;;9.88;;
82513;SDS011;72858;52.130;5.584;2024-01-30T11:42:11;10.00;;;7.55;;
82513;SDS011;72858;52.130;5.584;2024-01-30T11:44:36;11.10;;;7.30;;
82513;SDS011;72858;52.130;5.584;2024-01-30T11:47:01;10.10;;;6.27;;
82513;SDS011;72858;52.130;5.584;2024-01-30T11:49:28;12.43;;;6.65;;
82513;SDS011;72858;52.130;5.584;2024-01-30T11:51:53;12.13;;;6.72;;
82513;SDS011;72858;52.130;5.584;2024-01-30T11:54:19;10.77;;;7.15;;
82513;SDS011;72858;52.130;5.584;2024-01-30T11:56:44;13.63;;;7.65;;
82513;SDS011;72858;52.130;5.584;2024-01-30T11:59:09;8.83;;;6.70;;
82513;SDS011;72858;52.130;5.584;2024-01-30T12:01:34;12.75;;;5.90;;
82513;SDS011;72858;52.130;5.584;2024-01-30T12:04:00;10.80;;;5.82;;
82513;SDS011;72858;52.130;5.584;2024-01-30T12:06:25;14.05;;;5.13;;
82513;SDS011;72858;52.130;5.584;2024-01-30T12:08:57;9.63;;;5.13;;
82513;SDS011;72858;52.130;5.584;2024-01-30T12:11:23;9.50;;;4.47;;
82513;SDS011;72858;52.130;5.584;2024-01-30T12:13:49;7.40;;;4.40;;
82513;SDS011;72858;52.130;5.584;2024-01-30T12:16:14;8.73;;;4.32;;
82513;SDS011;72858;52.130;5.584;2024-01-30T12:18:40;9.70;;;3.92;;
82513;SDS011;72858;52.130;5.584;2024-01-30T12:21:05;5.10;;;3.10;;
82513;SDS011;72858;52.130;5.584;2024-01-30T12:23:30;8.05;;;3.28;;
82513;SDS011;72858;52.130;5.584;2024-01-30T12:25:55;3.80;;;3.10;;
82513;SDS011;72858;52.130;5.584;2024-01-30T12:28:21;6.95;;;2.55;;
82513;SDS011;72858;52.130;5.584;2024-01-30T12:30:46;4.90;;;2.90;;
82513;SDS011;72858;52.130;5.584;2024-01-30T12:33:17;7.05;;;2.70;;
82513;SDS011;72858;52.130;5.584;2024-01-30T12:35:46;4.57;;;2.70;;
82513;SDS011;72858;52.130;5.584;2024-01-30T12:38:12;4.20;;;3.08;;
82513;SDS011;72858;52.130;5.584;2024-01-30T12:40:38;4.47;;;3.75;;
82513;SDS011;72858;52.130;5.584;2024-01-30T12:43:03;5.73;;;4.17;;
82513;SDS011;72858;52.130;5.584;2024-01-30T12:45:28;7.78;;;4.20;;
82513;SDS011;72858;52.130;5.584;2024-01-30T12:47:55;8.00;;;4.20;;
82513;SDS011;72858;52.130;5.584;2024-01-30T12:50:20;8.30;;;4.65;;
82513;SDS011;72858;52.130;5.584;2024-01-30T12:52:45;5.90;;;4.90;;
82513;SDS011;72858;52.130;5.584;2024-01-30T12:55:11;8.20;;;4.80;;
82513;SDS011;72858;52.130;5.584;2024-01-30T12:57:36;9.57;;;4.50;;
82513;SDS011;72858;52.130;5.584;2024-01-30T13:00:01;7.40;;;4.75;;
82513;SDS011;72858;52.130;5.584;2024-01-30T13:02:27;7.53;;;4.40;;
82513;SDS011;72858;52.130;5.584;2024-01-30T13:04:59;11.98;;;5.30;;
82513;SDS011;72858;52.130;5.584;2024-01-30T13:07:25;9.23;;;4.35;;
82513;SDS011;72858;52.130;5.584;2024-01-30T13:09:50;9.20;;;5.03;;
82513;SDS011;72858;52.130;5.584;2024-01-30T13:12:15;6.83;;;4.03;;
82513;SDS011;72858;52.130;5.584;2024-01-30T13:14:40;7.57;;;4.90;;
82513;SDS011;72858;52.130;5.584;2024-01-30T13:17:06;5.90;;;4.28;;
82513;SDS011;72858;52.130;5.584;2024-01-30T13:19:31;10.55;;;4.80;;
82513;SDS011;72858;52.130;5.584;2024-01-30T13:21:56;11.20;;;4.53;;
82513;SDS011;72858;52.130;5.584;2024-01-30T13:24:21;11.37;;;4.77;;
82513;SDS011;72858;52.130;5.584;2024-01-30T13:26:46;8.00;;;4.33;;
82513;SDS011;72858;52.130;5.584;2024-01-30T13:29:12;5.40;;;3.90;;
82513;SDS011;72858;52.130;5.584;2024-01-30T13:31:37;10.57;;;4.00;;
82513;SDS011;72858;52.130;5.584;2024-01-30T13:34:04;7.22;;;4.55;;
82513;SDS011;72858;52.130;5.584;2024-01-30T13:36:29;16.77;;;9.30;;
82513;SDS011;72858;52.130;5.584;2024-01-30T13:38:54;6.27;;;4.80;;
82513;SDS011;72858;52.130;5.584;2024-01-30T13:41:19;8.55;;;5.05;;
82513;SDS011;72858;52.130;5.584;2024-01-30T13:43:46;15.38;;;9.15;;
82513;SDS011;72858;52.130;5.584;2024-01-30T13:46:11;9.18;;;6.57;;
82513;SDS011;72858;52.130;5.584;2024-01-30T13:48:36;6.28;;;4.57;;
82513;SDS011;72858;52.130;5.584;2024-01-30T13:51:01;17.37;;;7.70;;
82513;SDS011;72858;52.130;5.584;2024-01-30T13:53:27;8.30;;;5.03;;
82513;SDS011;72858;52.130;5.584;2024-01-30T13:55:52;11.43;;;4.50;;
82513;SDS011;72858;52.130;5.584;2024-01-30T13:58:17;9.80;;;7.03;;
82513;SDS011;72858;52.130;5.584;2024-01-30T14:00:42;8.40;;;3.00;;
82513;SDS011;72858;52.130;5.584;2024-01-30T14:03:08;6.38;;;2.75;;
82513;SDS011;72858;52.130;5.584;2024-01-30T14:05:33;8.52;;;2.72;;
82513;SDS011;72858;52.130;5.584;2024-01-30T14:07:58;5.87;;;1.73;;
82513;SDS011;72858;52.130;5.584;2024-01-30T14:10:24;7.93;;;6.07;;
82513;SDS011;72858;52.130;5.584;2024-01-30T14:12:50;6.30;;;2.70;;
82513;SDS011;72858;52.130;5.584;2024-01-30T14:15:15;2.13;;;1.17;;
82513;SDS011;72858;52.130;5.584;2024-01-30T14:17:42;4.28;;;2.30;;